createdAt,value
2023-04-02T00:02:01.124Z,14.4
2023-04-02T00:07:01.071Z,14.2
2023-04-02T00:12:01.077Z,14.0
2023-04-02T00:17:01.098Z,13.0
2023-04-02T00:22:01.602Z,11.2
2023-04-02T00:27:01.083Z,11.0
2023-04-02T00:32:01.134Z,10.5
2023-04-02T00:37:01.303Z,11.0
2023-04-02T00:42:02.328Z,11.6
2023-04-02T00:47:01.075Z,12.3
2023-04-02T00:52:01.066Z,13.3
2023-04-02T00:57:01.131Z,15.1
2023-04-02T01:02:16.575Z,15.0
2023-04-02T01:07:01.068Z,17.0
2023-04-02T01:12:01.156Z,17.2
2023-04-02T01:17:01.099Z,16.8
2023-04-02T01:22:01.087Z,16.5
2023-04-02T01:27:01.088Z,17.3
2023-04-02T01:32:01.070Z,15.5
2023-04-02T01:37:01.104Z,15.4
2023-04-02T01:42:16.547Z,15.0
2023-04-02T01:47:02.181Z,14.5
2023-04-02T01:52:01.074Z,13.5
2023-04-02T01:57:01.102Z,13.4
2023-04-02T02:02:01.120Z,13.3
2023-04-02T02:07:01.076Z,14.0
2023-04-02T02:12:01.073Z,13.5
2023-04-02T02:22:01.099Z,13.9
2023-04-02T02:27:01.601Z,12.8
2023-04-02T02:32:01.095Z,11.3
2023-04-02T02:37:01.107Z,10.8
2023-04-02T02:42:01.112Z,10.0
2023-04-02T02:47:08.238Z,9.2
2023-04-02T02:52:01.157Z,9.1
2023-04-02T02:57:05.310Z,10.2
2023-04-02T03:02:01.100Z,11.1
2023-04-02T03:07:01.082Z,11.6
2023-04-02T03:12:01.056Z,12.1
2023-04-02T03:17:01.282Z,12.0
2023-04-02T03:22:01.066Z,11.4
2023-04-02T03:27:05.525Z,10.2
2023-04-02T03:32:01.079Z,9.4
2023-04-02T03:37:01.151Z,7.9
2023-04-02T03:42:01.078Z,7.6
2023-04-02T03:47:01.102Z,7.4
2023-04-02T03:52:01.071Z,7.8
2023-04-02T03:57:02.312Z,9.0
2023-04-02T04:02:09.914Z,10.1
2023-04-02T04:07:01.060Z,12.0
2023-04-02T04:12:01.059Z,14.0
2023-04-02T04:17:01.090Z,14.3
2023-04-02T04:22:09.776Z,14.6
2023-04-02T04:27:01.078Z,14.3
2023-04-02T04:32:01.137Z,13.5
2023-04-02T04:37:01.234Z,12.6
2023-04-02T04:42:01.064Z,13.2
2023-04-02T04:47:01.064Z,13.1
2023-04-02T04:52:01.065Z,13.6
2023-04-02T04:57:02.893Z,14.0
2023-04-02T05:20:06.063Z,17.8
2023-04-02T05:26:01.065Z,20.9
2023-04-02T05:31:01.134Z,20.2
2023-04-02T05:36:01.110Z,28.2
2023-04-02T05:41:01.082Z,37.2
2023-04-02T05:46:01.069Z,46.1
2023-04-02T05:51:01.132Z,50.6
2023-04-02T05:56:01.142Z,49.4
2023-04-02T06:01:01.131Z,41.6
2023-04-02T06:06:05.855Z,29.3
2023-04-02T06:11:01.089Z,19.6
2023-04-02T06:16:01.095Z,13.7
2023-04-02T06:21:01.070Z,15.7
2023-04-02T06:26:01.079Z,17.9
2023-04-02T06:31:01.206Z,18.7
2023-04-02T06:36:01.113Z,19.8
2023-04-02T06:41:01.159Z,22.0
2023-04-02T06:46:01.090Z,21.1
2023-04-02T06:51:01.082Z,18.7
2023-04-02T06:56:01.105Z,18.1
2023-04-02T07:01:01.071Z,17.3
2023-04-02T07:06:02.039Z,14.0
2023-04-02T07:11:06.549Z,15.8
2023-04-02T07:16:01.099Z,16.1
2023-04-02T07:21:01.176Z,16.8
2023-04-02T07:26:01.074Z,16.2
2023-04-02T07:31:01.123Z,16.4
2023-04-02T07:36:01.593Z,13.4
2023-04-02T07:41:01.067Z,13.2
2023-04-02T07:46:01.109Z,12.5
2023-04-02T07:51:01.093Z,14.1
2023-04-02T07:56:06.446Z,16.2
2023-04-02T08:01:01.063Z,16.6
2023-04-02T08:06:06.147Z,17.3
2023-04-02T08:11:06.080Z,17.1
2023-04-02T08:16:01.084Z,15.8
2023-04-02T08:21:06.088Z,13.0
2023-04-02T08:26:06.133Z,12.6
2023-04-02T08:31:01.125Z,10.7
2023-04-02T08:36:01.080Z,9.2
2023-04-02T08:41:01.279Z,8.0
2023-04-02T08:46:01.083Z,7.6
2023-04-02T08:51:01.073Z,6.8
2023-04-02T08:56:02.201Z,7.1
2023-04-02T09:01:01.067Z,9.0
2023-04-02T09:06:06.092Z,11.2
2023-04-02T09:11:01.078Z,12.8
2023-04-02T09:16:01.109Z,13.6
2023-04-02T09:21:01.072Z,13.8
2023-04-02T09:31:01.097Z,11.6
2023-04-02T09:36:01.125Z,10.9
2023-04-02T09:41:06.499Z,11.6
2023-04-02T09:46:06.155Z,10.7
2023-04-02T09:51:06.096Z,11.1
2023-04-02T09:56:01.480Z,12.8
2023-04-02T10:01:01.100Z,13.7
2023-04-02T10:06:06.134Z,13.8
2023-04-02T10:11:06.109Z,17.2
2023-04-02T10:16:06.089Z,19.1
2023-04-02T10:21:06.096Z,21.6
2023-04-02T10:26:06.113Z,21.1
2023-04-02T10:31:02.545Z,21.3
2023-04-02T10:36:01.120Z,20.4
2023-04-02T10:41:06.524Z,20.3
2023-04-02T10:46:06.167Z,17.2
2023-04-02T10:51:06.099Z,18.5
2023-04-02T11:01:01.081Z,18.7
2023-04-02T11:06:06.088Z,16.5
2023-04-02T11:11:06.062Z,16.9
2023-04-02T11:16:01.069Z,15.8
2023-04-02T11:21:01.713Z,15.1
2023-04-02T11:26:01.083Z,13.2
2023-04-02T11:31:01.107Z,11.9
2023-04-02T11:36:06.086Z,10.4
2023-04-02T11:41:06.115Z,10.0
2023-04-02T11:46:01.666Z,8.8
2023-04-02T11:51:06.103Z,9.1
2023-04-02T11:56:01.072Z,12.1
2023-04-02T12:01:06.082Z,14.0
2023-04-02T12:06:02.886Z,13.9
2023-04-02T12:11:06.055Z,14.4
2023-04-02T12:16:01.554Z,14.3
2023-04-02T12:21:06.126Z,12.9
2023-04-02T12:26:01.064Z,12.2
2023-04-02T12:31:12.300Z,11.1
2023-04-02T12:36:01.121Z,10.6
2023-04-02T12:41:01.072Z,10.1
2023-04-02T12:46:06.083Z,7.9
2023-04-02T12:51:06.055Z,6.4
2023-04-02T12:56:01.121Z,6.1
2023-04-02T13:01:01.349Z,5.5
2023-04-02T13:06:01.072Z,5.2
2023-04-02T13:11:01.062Z,5.5
2023-04-02T13:16:01.125Z,5.0
2023-04-02T13:21:06.109Z,5.3
2023-04-02T13:26:12.335Z,7.8
2023-04-02T13:31:01.071Z,8.9
2023-04-02T13:36:01.119Z,8.6
2023-04-02T13:41:06.103Z,9.3
2023-04-02T13:46:06.158Z,8.8
2023-04-02T13:51:02.063Z,7.0
2023-04-02T13:56:06.061Z,9.8
2023-04-02T14:06:06.096Z,11.2
2023-04-02T14:11:01.064Z,11.9
2023-04-02T14:21:01.057Z,8.4
2023-04-02T14:26:06.097Z,9.0
2023-04-02T14:31:06.089Z,7.5
2023-04-02T14:36:13.373Z,6.8
2023-04-02T14:41:01.915Z,7.0
2023-04-02T14:46:01.105Z,7.1
2023-04-02T14:51:01.111Z,6.5
2023-04-02T14:56:06.076Z,6.4
2023-04-02T15:01:06.197Z,6.5
2023-04-02T15:06:01.095Z,5.5
2023-04-02T15:11:08.198Z,4.8
2023-04-02T15:26:06.083Z,7.4
2023-04-02T15:31:06.084Z,8.2
2023-04-02T15:36:16.759Z,8.6
2023-04-02T15:41:01.066Z,9.4
2023-04-02T15:46:01.288Z,10.2
2023-04-02T15:51:01.999Z,8.1
2023-04-02T15:56:01.545Z,8.0
2023-04-02T16:01:06.143Z,8.6
2023-04-02T16:06:06.092Z,8.5
2023-04-02T16:11:01.062Z,8.9
2023-04-02T16:16:06.064Z,9.2
2023-04-02T16:26:19.542Z,9.7
2023-04-02T16:31:01.154Z,9.1
2023-04-02T16:36:01.117Z,8.1
2023-04-02T16:41:08.637Z,7.8
2023-04-02T16:46:06.096Z,6.9
2023-04-02T16:51:01.712Z,5.2
2023-04-02T16:56:01.065Z,5.1
2023-04-02T17:01:01.055Z,5.6
2023-04-02T17:06:06.127Z,6.1
2023-04-02T17:11:01.058Z,7.0
2023-04-02T17:16:01.878Z,7.8
2023-04-02T17:21:06.092Z,8.2
2023-04-02T17:26:01.088Z,8.0
2023-04-02T17:31:06.103Z,8.4
2023-04-02T17:36:01.082Z,8.5
2023-04-02T17:42:06.107Z,8.9
2023-04-02T17:47:01.057Z,9.4
2023-04-02T17:52:06.355Z,9.3
2023-04-02T17:57:03.184Z,9.2
2023-04-02T18:02:01.111Z,9.8
2023-04-02T18:07:01.065Z,8.6
2023-04-02T18:12:01.729Z,8.7
2023-04-02T18:17:01.080Z,9.4
2023-04-02T18:22:06.089Z,9.1
2023-04-02T18:27:01.081Z,10.7
2023-04-02T18:32:01.072Z,11.8
2023-04-02T18:37:01.970Z,13.2
2023-04-02T18:42:01.090Z,14.3
2023-04-02T18:47:01.052Z,15.1
2023-04-02T18:52:01.068Z,14.5
2023-04-02T18:57:01.092Z,16.3
2023-04-02T19:02:01.077Z,16.7
2023-04-02T19:07:01.060Z,16.3
2023-04-02T19:12:01.061Z,17.4
2023-04-02T19:17:01.051Z,17.6
2023-04-02T19:22:01.104Z,17.4
2023-04-02T19:27:01.060Z,16.2
2023-04-02T19:32:01.251Z,16.3
2023-04-02T19:37:06.131Z,14.7
2023-04-02T19:42:06.091Z,13.0
2023-04-02T19:47:01.131Z,11.9
2023-04-02T19:52:01.096Z,11.3
2023-04-02T19:57:03.157Z,9.6
2023-04-02T20:02:04.845Z,8.8
2023-04-02T20:07:01.525Z,9.0
2023-04-02T20:12:06.108Z,8.0
2023-04-02T20:17:02.559Z,7.8
2023-04-02T20:22:01.076Z,8.4
2023-04-02T20:27:06.082Z,7.7
2023-04-02T20:32:01.084Z,7.6
2023-04-02T20:37:06.065Z,7.2
2023-04-02T20:42:01.080Z,6.0
2023-04-02T20:47:01.058Z,4.8
2023-04-02T20:52:01.097Z,4.5
2023-04-02T20:57:01.094Z,3.6
2023-04-02T21:02:06.068Z,4.2
2023-04-02T21:12:01.101Z,4.6
2023-04-02T21:17:01.140Z,4.8
2023-04-02T21:22:06.106Z,4.4
2023-04-02T21:27:06.686Z,3.8
2023-04-02T21:32:18.399Z,3.6
2023-04-02T21:37:01.112Z,2.8
2023-04-02T21:42:01.060Z,2.2
2023-04-02T21:47:06.182Z,2.3
2023-04-02T21:52:01.085Z,1.8
2023-04-02T21:57:01.126Z,1.6
2023-04-02T22:03:01.159Z,1.8
2023-04-02T22:08:01.074Z,1.6
2023-04-02T22:13:01.286Z,1.3
2023-04-02T22:23:01.232Z,1.2
2023-04-02T22:28:01.066Z,0.8
2023-04-02T22:33:01.090Z,1.2
2023-04-02T22:38:01.067Z,1.4
2023-04-02T22:43:01.089Z,1.2
2023-04-02T22:48:01.068Z,2.2
2023-04-02T22:53:01.552Z,2.6
2023-04-02T22:58:06.117Z,3.1
2023-04-02T23:14:01.088Z,2.1
2023-04-02T23:19:06.080Z,1.9
2023-04-02T23:24:06.097Z,1.3
2023-04-02T23:29:01.068Z,2.0
2023-04-02T23:34:01.090Z,2.2
2023-04-02T23:44:01.056Z,2.4
2023-04-02T23:49:01.076Z,2.3
2023-04-02T23:54:01.597Z,1.6
2023-04-02T23:59:01.059Z,1.3
